Wattsburg, Pennsylvania
Current Conditions -  °F | °C
As of 9:36 PM on Thursday 20 Nov 2014 (Local Time) from KERI Reporting Station
Light Snow Light Snow  
Wind Chill: -13°   Ceiling: 2300
Heat Index: -4°   Visibility: 1.2mi
Dew Point: -8°   Wind: 25mph
Humidity: 75%   Direction: 300°WNW
Pressure: 30.03"   Gusts: 43mph
Location:  42°N, 79.81°W
Report Text: KERI 210236Z 30022G37KT 260V330 1 1/4SM R06/3500VP6000FT -SN SCT012 BKN023 OVC060 M04/M08 A3003 RMK AO2 PK WND 31037/0235 SNB0154 P0001 T10391078
Loading
Personal Weather Stations






























Interactive Weather Map New forecast layout! Learn more

10-Day Weather Forecast

Advertisements
Track Severe Weather on mobile